La Suprema — IBIL — position and weather

sailwx.info

Track history (hours):
 
Tides and Currents Weather Stations Pressure Air Temp Water Temp Dewpoint Dewpoint Depression Visibility Wind Speed Wind Dir Waves Ship Positions

La Suprema

Last reported at 2015-Aug-31 19:33 UTC. Time now 2015-Aug-31 19:52 UTC.
Position N 38°07' E 013°23'.

Length 211 m; draft 7.1 m.

Type: Passenger vessel. MMSI: 247083700.

Date/timePositionNaut miles runAvg speedWind from/ knotsBaromVisibWave heightAir tempDewpointWater temp
2015-Aug-31 19:33N 38°07' E 013°23'1 0.7
2015-Aug-31 18:33N 38°08' E 013°22'0 0.0
2015-Aug-31 17:33N 38°08' E 013°22'0 0.0
2015-Aug-31 16:33N 38°08' E 013°22'0 0.0
2015-Aug-31 15:33N 38°08' E 013°22'0 0.0
2015-Aug-31 14:34N 38°08' E 013°22'6 6.2
2015-Aug-31 13:33N 38°14' E 013°24'2323.0
2015-Aug-31 12:34N 38°33' E 013°07'2323.0
2015-Aug-31 11:33N 38°53' E 012°51'2323.3
2015-Aug-31 10:34N 39°12' E 012°36'9323.2
2015-Aug-31 06:33N 40°30' E 011°31'9323.3
2015-Aug-31 02:33N 41°49' E 010°24'2323.1
2015-Aug-31 01:33N 42°08' E 010°07'3122.7
2015-Aug-31 00:12N 42°36' E 009°50'4422.6
2015-Aug-30 22:14N 43°18' E 009°30'1622.9
2015-Aug-30 21:33N 43°33' E 009°22'2323.0
2015-Aug-30 20:34N 43°54' E 009°11'2323.2
2015-Aug-30 19:34N 44°16' E 008°60'9 8.9
2015-Aug-30 18:32N 44°25' E 008°55'0 0.0
2015-Aug-30 17:32N 44°25' E 008°55'0 0.0
2015-Aug-30 16:31N 44°25' E 008°55'0 0.0
2015-Aug-30 15:31N 44°25' E 008°55'0 0.0
2015-Aug-30 14:33N 44°25' E 008°55'1414.4
2015-Aug-30 13:34N 44°12' E 009°06'2524.9
2015-Aug-30 12:33N 43°51' E 009°23'2525.2
2015-Aug-30 11:33N 43°29' E 009°41'2524.9
2015-Aug-30 10:33N 43°07' E 009°57'7324.2
2015-Aug-30 07:32N 42°02' E 010°42'10023.1
2015-Aug-30 03:13N 40°33' E 011°44'9523.2
2015-Aug-29 23:07N 39°09' E 012°42'1322.9
2015-Aug-29 22:33N 38°58' E 012°50'2523.2
2015-Aug-29 21:30N 38°36' E 013°05'2223.1
2015-Aug-29 20:34N 38°19' E 013°21'1111.0
2015-Aug-29 19:34N 38°08' E 013°22'0 0.0
2015-Aug-29 18:33N 38°08' E 013°22'0 0.0
2015-Aug-29 17:34N 38°08' E 013°22'0 0.0
2015-Aug-29 16:33N 38°08' E 013°22'0 0.0
2015-Aug-29 15:33N 38°08' E 013°22'0 0.0
2015-Aug-29 14:34N 38°08' E 013°22'1110.6
2015-Aug-29 13:33N 38°18' E 013°20'2323.1
2015-Aug-29 12:34N 38°38' E 013°03'16223.0
2015-Aug-29 05:33N 40°54' E 011°12'2923.9
2015-Aug-29 04:21N 41°18' E 010°51'1923.2
2015-Aug-29 03:33N 41°34' E 010°38'2423.0
2015-Aug-29 02:30N 41°54' E 010°20'11623.0
2015-Aug-28 21:27N 43°41' E 009°17'2123.2
2015-Aug-28 20:34N 44°00' E 009°07'2323.0
2015-Aug-28 19:33N 44°22' E 008°57'3 2.8
2015-Aug-28 18:33N 44°25' E 008°55'0 0.0
2015-Aug-28 17:33N 44°25' E 008°55'0 0.0
2015-Aug-28 16:33N 44°25' E 008°55'0 0.0
2015-Aug-28 15:33N 44°25' E 008°55'3 3.1
2015-Aug-28 14:33N 44°22' E 008°58'2222.5
2015-Aug-28 13:33N 44°03' E 009°14'3323.3
2015-Aug-28 12:09N 43°34' E 009°36'1423.6
2015-Aug-28 11:33N 43°22' E 009°46'3022.3
2015-Aug-28 10:14N 42°55' E 010°01'26822.9
2015-Aug-27 22:33N 38°59' E 012°49'4623.3
2015-Aug-27 20:33N 38°19' E 013°19'1210.6
2015-Aug-27 19:27N 38°08' E 013°22'0 0.0
2015-Aug-27 18:20N 38°08' E 013°22'0 0.0
2015-Aug-27 17:26N 38°08' E 013°22'0 0.0
2015-Aug-27 16:23N 38°08' E 013°22'0 0.0
2015-Aug-27 15:28N 38°08' E 013°22'0 0.0
2015-Aug-27 14:25N 38°08' E 013°22'2 2.5
2015-Aug-27 13:33N 38°09' E 013°24'38423.3
2015-Aug-26 21:03N 43°44' E 009°16'1723.3
2015-Aug-26 20:20N 43°60' E 009°07'1823.2
2015-Aug-26 19:33N 44°17' E 008°59'8 8.3
2015-Aug-26 18:33N 44°25' E 008°55'0 0.0
2015-Aug-26 17:33N 44°25' E 008°55'0 0.0
2015-Aug-26 16:33N 44°25' E 008°55'0 0.0
2015-Aug-26 15:33N 44°25' E 008°55'2 1.9
2015-Aug-26 14:33N 44°23' E 008°57'2019.4
2015-Aug-26 13:31N 44°06' E 009°11'2424.9
2015-Aug-26 12:34N 43°45' E 009°28'2525.2
2015-Aug-26 11:34N 43°23' E 009°45'2424.3
2015-Aug-26 10:34N 43°01' E 009°60'3123.3
2015-Aug-26 09:13N 42°33' E 010°17'29223.1
2015-Aug-25 20:33N 38°17' E 013°22'9 8.7
2015-Aug-25 19:33N 38°08' E 013°22'0 0.0
2015-Aug-25 18:33N 38°08' E 013°22'0 0.0
2015-Aug-25 17:33N 38°08' E 013°22'0 0.0
2015-Aug-25 16:33N 38°08' E 013°22'0 0.0
2015-Aug-25 15:33N 38°08' E 013°22'0 0.0
2015-Aug-25 14:34N 38°08' E 013°22'1412.8
2015-Aug-25 13:29N 38°21' E 013°18'40922.8
2015-Aug-24 19:33N 44°21' E 008°58'4 4.4
2015-Aug-24 18:33N 44°25' E 008°55'0 0.0
2015-Aug-24 17:34N 44°25' E 008°55'0 0.0
2015-Aug-24 16:33N 44°25' E 008°55'0 0.0
2015-Aug-24 15:33N 44°25' E 008°55'2 1.6
2015-Aug-24 14:34N 44°23' E 008°56'2120.7
2015-Aug-24 13:34N 44°06' E 009°11'37123.1
2015-Aug-23 21:31N 38°38' E 013°03'2323.5
2015-Aug-23 20:34N 38°20' E 013°19'1211.9
2015-Aug-23 19:33N 38°08' E 013°22'0 0.0
2015-Aug-23 18:32N 38°08' E 013°22'0 0.0
2015-Aug-23 17:32N 38°08' E 013°22'0 0.0
2015-Aug-23 16:25N 38°08' E 013°22'0 0.0
2015-Aug-23 15:31N 38°08' E 013°22'0 0.0
2015-Aug-23 14:31N 38°08' E 013°22'0 0.0
2015-Aug-23 13:33N 38°08' E 013°22'1211.8
2015-Aug-23 12:34N 38°19' E 013°19'40723.9
2015-Aug-22 19:33N 44°16' E 008°59'9 8.7
2015-Aug-22 18:33N 44°25' E 008°55'0 0.0
2015-Aug-22 17:33N 44°25' E 008°55'0 0.0
2015-Aug-22 16:33N 44°25' E 008°55'0 0.0
2015-Aug-22 15:34N 44°25' E 008°55'2 2.1
2015-Aug-22 14:33N 44°23' E 008°57'39222.9
2015-Aug-21 21:26N 38°37' E 013°04'2023.2
2015-Aug-21 20:33N 38°21' E 013°20'1313.3
2015-Aug-21 19:34N 38°08' E 013°22'  
Track history (hours):
 
Tides and Currents Weather Stations Pressure Air Temp Water Temp Dewpoint Dewpoint Depression Visibility Wind Speed Wind Dir Waves Ship Positions

La Suprema

Last reported at 2015-Aug-31 19:33 UTC. Time now 2015-Aug-31 19:52 UTC.
Position N 38°07' E 013°23'.

Length 211 m; draft 7.1 m.

Type: Passenger vessel. MMSI: 247083700.

Date/timePositionNaut miles runAvg speedWind from/ knotsBaromVisibWave heightAir tempDewpointWater temp
2015-Aug-31 19:33N 38°07' E 013°23'1 0.7
2015-Aug-31 18:33N 38°08' E 013°22'0 0.0
2015-Aug-31 17:33N 38°08' E 013°22'0 0.0
2015-Aug-31 16:33N 38°08' E 013°22'0 0.0
2015-Aug-31 15:33N 38°08' E 013°22'0 0.0
2015-Aug-31 14:34N 38°08' E 013°22'6 6.2
2015-Aug-31 13:33N 38°14' E 013°24'2323.0
2015-Aug-31 12:34N 38°33' E 013°07'2323.0
2015-Aug-31 11:33N 38°53' E 012°51'2323.3
2015-Aug-31 10:34N 39°12' E 012°36'9323.2
2015-Aug-31 06:33N 40°30' E 011°31'9323.3
2015-Aug-31 02:33N 41°49' E 010°24'2323.1
2015-Aug-31 01:33N 42°08' E 010°07'3122.7
2015-Aug-31 00:12N 42°36' E 009°50'4422.6
2015-Aug-30 22:14N 43°18' E 009°30'1622.9
2015-Aug-30 21:33N 43°33' E 009°22'2323.0
2015-Aug-30 20:34N 43°54' E 009°11'2323.2
2015-Aug-30 19:34N 44°16' E 008°60'9 8.9
2015-Aug-30 18:32N 44°25' E 008°55'0 0.0
2015-Aug-30 17:32N 44°25' E 008°55'0 0.0
2015-Aug-30 16:31N 44°25' E 008°55'0 0.0
2015-Aug-30 15:31N 44°25' E 008°55'0 0.0
2015-Aug-30 14:33N 44°25' E 008°55'1414.4
2015-Aug-30 13:34N 44°12' E 009°06'2524.9
2015-Aug-30 12:33N 43°51' E 009°23'2525.2
2015-Aug-30 11:33N 43°29' E 009°41'2524.9
2015-Aug-30 10:33N 43°07' E 009°57'7324.2
2015-Aug-30 07:32N 42°02' E 010°42'10023.1
2015-Aug-30 03:13N 40°33' E 011°44'9523.2
2015-Aug-29 23:07N 39°09' E 012°42'1322.9
2015-Aug-29 22:33N 38°58' E 012°50'2523.2
2015-Aug-29 21:30N 38°36' E 013°05'2223.1
2015-Aug-29 20:34N 38°19' E 013°21'1111.0
2015-Aug-29 19:34N 38°08' E 013°22'0 0.0
2015-Aug-29 18:33N 38°08' E 013°22'0 0.0
2015-Aug-29 17:34N 38°08' E 013°22'0 0.0
2015-Aug-29 16:33N 38°08' E 013°22'0 0.0
2015-Aug-29 15:33N 38°08' E 013°22'0 0.0
2015-Aug-29 14:34N 38°08' E 013°22'1110.6
2015-Aug-29 13:33N 38°18' E 013°20'2323.1
2015-Aug-29 12:34N 38°38' E 013°03'16223.0
2015-Aug-29 05:33N 40°54' E 011°12'2923.9
2015-Aug-29 04:21N 41°18' E 010°51'1923.2
2015-Aug-29 03:33N 41°34' E 010°38'2423.0
2015-Aug-29 02:30N 41°54' E 010°20'11623.0
2015-Aug-28 21:27N 43°41' E 009°17'2123.2
2015-Aug-28 20:34N 44°00' E 009°07'2323.0
2015-Aug-28 19:33N 44°22' E 008°57'3 2.8
2015-Aug-28 18:33N 44°25' E 008°55'0 0.0
2015-Aug-28 17:33N 44°25' E 008°55'0 0.0
2015-Aug-28 16:33N 44°25' E 008°55'0 0.0
2015-Aug-28 15:33N 44°25' E 008°55'3 3.1
2015-Aug-28 14:33N 44°22' E 008°58'2222.5
2015-Aug-28 13:33N 44°03' E 009°14'3323.3
2015-Aug-28 12:09N 43°34' E 009°36'1423.6
2015-Aug-28 11:33N 43°22' E 009°46'3022.3
2015-Aug-28 10:14N 42°55' E 010°01'26822.9
2015-Aug-27 22:33N 38°59' E 012°49'4623.3
2015-Aug-27 20:33N 38°19' E 013°19'1210.6
2015-Aug-27 19:27N 38°08' E 013°22'0 0.0
2015-Aug-27 18:20N 38°08' E 013°22'0 0.0
2015-Aug-27 17:26N 38°08' E 013°22'0 0.0
2015-Aug-27 16:23N 38°08' E 013°22'0 0.0
2015-Aug-27 15:28N 38°08' E 013°22'0 0.0
2015-Aug-27 14:25N 38°08' E 013°22'2 2.5
2015-Aug-27 13:33N 38°09' E 013°24'38423.3
2015-Aug-26 21:03N 43°44' E 009°16'1723.3
2015-Aug-26 20:20N 43°60' E 009°07'1823.2
2015-Aug-26 19:33N 44°17' E 008°59'8 8.3
2015-Aug-26 18:33N 44°25' E 008°55'0 0.0
2015-Aug-26 17:33N 44°25' E 008°55'0 0.0
2015-Aug-26 16:33N 44°25' E 008°55'0 0.0
2015-Aug-26 15:33N 44°25' E 008°55'2 1.9
2015-Aug-26 14:33N 44°23' E 008°57'2019.4
2015-Aug-26 13:31N 44°06' E 009°11'2424.9
2015-Aug-26 12:34N 43°45' E 009°28'2525.2
2015-Aug-26 11:34N 43°23' E 009°45'2424.3
2015-Aug-26 10:34N 43°01' E 009°60'3123.3
2015-Aug-26 09:13N 42°33' E 010°17'29223.1
2015-Aug-25 20:33N 38°17' E 013°22'9 8.7
2015-Aug-25 19:33N 38°08' E 013°22'0 0.0
2015-Aug-25 18:33N 38°08' E 013°22'0 0.0
2015-Aug-25 17:33N 38°08' E 013°22'0 0.0
2015-Aug-25 16:33N 38°08' E 013°22'0 0.0
2015-Aug-25 15:33N 38°08' E 013°22'0 0.0
2015-Aug-25 14:34N 38°08' E 013°22'1412.8
2015-Aug-25 13:29N 38°21' E 013°18'40922.8
2015-Aug-24 19:33N 44°21' E 008°58'4 4.4
2015-Aug-24 18:33N 44°25' E 008°55'0 0.0
2015-Aug-24 17:34N 44°25' E 008°55'0 0.0
2015-Aug-24 16:33N 44°25' E 008°55'0 0.0
2015-Aug-24 15:33N 44°25' E 008°55'2 1.6
2015-Aug-24 14:34N 44°23' E 008°56'2120.7
2015-Aug-24 13:34N 44°06' E 009°11'37123.1
2015-Aug-23 21:31N 38°38' E 013°03'2323.5
2015-Aug-23 20:34N 38°20' E 013°19'1211.9
2015-Aug-23 19:33N 38°08' E 013°22'0 0.0
2015-Aug-23 18:32N 38°08' E 013°22'0 0.0
2015-Aug-23 17:32N 38°08' E 013°22'0 0.0
2015-Aug-23 16:25N 38°08' E 013°22'0 0.0
2015-Aug-23 15:31N 38°08' E 013°22'0 0.0
2015-Aug-23 14:31N 38°08' E 013°22'0 0.0
2015-Aug-23 13:33N 38°08' E 013°22'1211.8
2015-Aug-23 12:34N 38°19' E 013°19'40723.9
2015-Aug-22 19:33N 44°16' E 008°59'9 8.7
2015-Aug-22 18:33N 44°25' E 008°55'0 0.0
2015-Aug-22 17:33N 44°25' E 008°55'0 0.0
2015-Aug-22 16:33N 44°25' E 008°55'0 0.0
2015-Aug-22 15:34N 44°25' E 008°55'2 2.1
2015-Aug-22 14:33N 44°23' E 008°57'39222.9
2015-Aug-21 21:26N 38°37' E 013°04'2023.2
2015-Aug-21 20:33N 38°21' E 013°20'1313.3
2015-Aug-21 19:34N 38°08' E 013°22'  

Dump ship's entire track history